createdAt,value
2016-12-05T00:00:27.295Z,0
2016-12-05T00:01:36.167Z,0
2016-12-05T00:02:44.997Z,0
2016-12-05T00:03:53.849Z,0
2016-12-05T00:05:02.719Z,0
2016-12-05T00:06:11.566Z,0
2016-12-05T00:07:20.439Z,0
2016-12-05T00:08:29.306Z,0
2016-12-05T00:09:38.165Z,0
2016-12-05T00:10:47.025Z,0
2016-12-05T00:11:55.869Z,0
2016-12-05T00:13:04.724Z,0
2016-12-05T00:14:13.592Z,0
2016-12-05T00:15:22.440Z,0
2016-12-05T00:16:31.273Z,0
2016-12-05T00:17:40.143Z,0
2016-12-05T00:18:48.989Z,0
2016-12-05T00:19:57.827Z,0
2016-12-05T00:21:06.692Z,0
2016-12-05T00:22:15.532Z,0
2016-12-05T00:23:24.401Z,0
2016-12-05T00:24:33.252Z,0
2016-12-05T00:25:42.092Z,0
2016-12-05T00:26:50.952Z,0
2016-12-05T00:27:59.807Z,0
2016-12-05T00:29:08.657Z,0
2016-12-05T00:30:17.516Z,0
2016-12-05T00:31:26.377Z,0
2016-12-05T00:32:35.219Z,0
2016-12-05T00:33:44.116Z,0
2016-12-05T00:34:52.978Z,0
2016-12-05T00:36:01.848Z,0
2016-12-05T00:37:10.711Z,0
2016-12-05T00:38:19.544Z,0
2016-12-05T00:39:28.408Z,0
2016-12-05T00:40:37.272Z,0
2016-12-05T00:41:46.110Z,0
2016-12-05T00:42:54.967Z,0
2016-12-05T00:44:03.842Z,0
2016-12-05T00:45:12.689Z,0
2016-12-05T00:46:21.526Z,0
2016-12-05T00:47:30.391Z,0
2016-12-05T00:48:39.234Z,0
2016-12-05T00:49:48.089Z,0
2016-12-05T00:50:56.960Z,0
2016-12-05T00:52:05.803Z,0
2016-12-05T00:53:14.638Z,0
2016-12-05T00:54:23.514Z,0
2016-12-05T00:55:32.369Z,0
2016-12-05T00:56:41.207Z,0
2016-12-05T00:57:50.056Z,0
2016-12-05T00:58:58.916Z,0
2016-12-05T01:00:07.757Z,0
2016-12-05T01:01:16.623Z,0
2016-12-05T01:02:25.488Z,0
2016-12-05T01:03:34.330Z,0
2016-12-05T01:04:43.180Z,0
2016-12-05T01:05:52.021Z,0
2016-12-05T01:07:00.885Z,0
2016-12-05T01:08:09.755Z,0
2016-12-05T01:09:18.594Z,0
2016-12-05T01:10:27.447Z,0
2016-12-05T01:11:36.309Z,0
2016-12-05T01:12:45.180Z,0
2016-12-05T01:13:54.036Z,0
2016-12-05T01:15:02.890Z,0
2016-12-05T01:16:11.743Z,0
2016-12-05T01:17:20.582Z,0
2016-12-05T01:18:29.444Z,0
2016-12-05T01:19:38.306Z,0
2016-12-05T01:20:47.178Z,0
2016-12-05T01:21:56.012Z,0
2016-12-05T01:23:04.857Z,0
2016-12-05T01:24:13.759Z,0
2016-12-05T01:25:22.603Z,0
2016-12-05T01:26:31.456Z,0
2016-12-05T01:27:40.317Z,0
2016-12-05T01:28:49.174Z,0
2016-12-05T01:29:57.997Z,0
2016-12-05T01:31:06.855Z,0
2016-12-05T01:32:15.712Z,0
2016-12-05T01:33:24.550Z,0
2016-12-05T01:34:33.407Z,0
2016-12-05T01:35:42.240Z,0
2016-12-05T01:36:51.149Z,0
2016-12-05T01:38:00.006Z,0
2016-12-05T01:39:08.840Z,0
2016-12-05T01:40:17.823Z,0
2016-12-05T01:41:26.667Z,0
2016-12-05T01:42:35.515Z,0
2016-12-05T01:43:44.386Z,0
2016-12-05T01:44:53.229Z,0
2016-12-05T01:46:02.073Z,0
2016-12-05T01:47:10.929Z,0
2016-12-05T01:48:19.785Z,0
2016-12-05T01:49:28.617Z,0
2016-12-05T01:50:37.455Z,0
2016-12-05T01:51:46.333Z,0
2016-12-05T01:52:55.168Z,0
2016-12-05T01:54:04.018Z,0
2016-12-05T01:55:12.882Z,0
2016-12-05T01:56:21.719Z,0
2016-12-05T01:57:30.559Z,0
2016-12-05T01:58:39.421Z,0
2016-12-05T01:59:48.314Z,0
2016-12-05T02:00:57.142Z,0
2016-12-05T02:02:06.001Z,0
2016-12-05T02:03:14.864Z,0
2016-12-05T02:04:23.721Z,0
2016-12-05T02:05:32.577Z,0
2016-12-05T02:06:41.409Z,0
2016-12-05T02:07:50.281Z,0
2016-12-05T02:08:59.126Z,0
2016-12-05T02:10:08.290Z,0
2016-12-05T02:11:17.149Z,0
2016-12-05T02:12:26.002Z,0
2016-12-05T02:13:34.850Z,0
2016-12-05T02:14:43.740Z,0
2016-12-05T02:15:52.610Z,0
2016-12-05T02:17:01.446Z,0
2016-12-05T02:18:10.294Z,0
2016-12-05T02:19:19.133Z,0
2016-12-05T02:20:27.997Z,0
2016-12-05T02:21:36.862Z,0
2016-12-05T02:22:45.719Z,0
2016-12-05T02:23:54.568Z,0
2016-12-05T02:25:03.430Z,0
2016-12-05T02:26:12.276Z,0
2016-12-05T02:27:21.127Z,0
2016-12-05T02:28:30.036Z,0
2016-12-05T02:29:38.887Z,0
2016-12-05T02:30:47.726Z,0
2016-12-05T02:31:56.593Z,0
2016-12-05T02:33:05.430Z,0
2016-12-05T02:34:14.300Z,0
2016-12-05T02:35:23.128Z,0
2016-12-05T02:36:31.975Z,0
2016-12-05T02:37:40.835Z,0
2016-12-05T02:38:49.688Z,0
2016-12-05T02:39:58.534Z,0
2016-12-05T02:41:07.399Z,0
2016-12-05T02:42:16.242Z,0
2016-12-05T02:43:25.081Z,0
2016-12-05T02:44:33.944Z,0
2016-12-05T02:45:42.790Z,0
2016-12-05T02:46:51.624Z,0
2016-12-05T02:48:00.471Z,0
2016-12-05T02:49:09.342Z,0
2016-12-05T02:50:18.173Z,0
2016-12-05T02:51:27.029Z,0
2016-12-05T02:52:35.893Z,0
2016-12-05T02:53:44.745Z,0
2016-12-05T02:54:53.602Z,0
2016-12-05T02:56:02.473Z,0
2016-12-05T02:57:11.324Z,0
2016-12-05T02:58:20.168Z,0
2016-12-05T02:59:29.038Z,0
2016-12-05T03:00:37.880Z,0
2016-12-05T03:01:46.714Z,0
2016-12-05T03:02:55.559Z,0
2016-12-05T03:04:04.425Z,0
2016-12-05T03:05:13.300Z,0
2016-12-05T03:06:22.142Z,0
2016-12-05T03:07:30.979Z,0
2016-12-05T03:08:39.840Z,0
2016-12-05T03:09:48.689Z,0
2016-12-05T03:10:57.532Z,0
2016-12-05T03:12:06.399Z,0
2016-12-05T03:13:15.250Z,0
2016-12-05T03:14:24.119Z,0
2016-12-05T03:15:33.099Z,0
2016-12-05T03:16:41.954Z,0
2016-12-05T03:17:50.807Z,0
2016-12-05T03:18:59.651Z,0
2016-12-05T03:20:08.504Z,0
2016-12-05T03:21:17.381Z,0
2016-12-05T03:22:26.257Z,0
2016-12-05T03:23:35.100Z,0
2016-12-05T03:24:43.983Z,0
2016-12-05T03:25:52.834Z,0
2016-12-05T03:27:01.664Z,0
2016-12-05T03:28:10.510Z,0
2016-12-05T03:29:19.377Z,0
2016-12-05T03:30:28.210Z,0
2016-12-05T03:31:37.057Z,0
2016-12-05T03:32:45.891Z,0
2016-12-05T03:33:54.759Z,0
2016-12-05T03:35:03.626Z,0
2016-12-05T03:36:12.461Z,0
2016-12-05T03:37:21.305Z,0
2016-12-05T03:38:30.170Z,0
2016-12-05T03:39:39.005Z,0
2016-12-05T03:40:47.851Z,0
2016-12-05T03:41:56.726Z,0
2016-12-05T03:43:05.571Z,0
2016-12-05T03:44:14.414Z,0
2016-12-05T03:45:23.289Z,0
2016-12-05T03:46:32.147Z,0
2016-12-05T03:47:41.012Z,0
2016-12-05T03:48:49.859Z,0
2016-12-05T03:49:58.722Z,0
2016-12-05T03:51:07.583Z,0
2016-12-05T03:52:16.428Z,0
2016-12-05T03:53:25.263Z,0
2016-12-05T03:54:34.125Z,0
2016-12-05T03:55:42.967Z,0
2016-12-05T03:56:51.817Z,0
2016-12-05T03:58:00.681Z,0
2016-12-05T03:59:09.546Z,0
2016-12-05T04:00:18.367Z,0
2016-12-05T04:01:27.223Z,0
2016-12-05T04:02:36.061Z,0
2016-12-05T04:03:44.919Z,0
2016-12-05T04:04:53.769Z,0
2016-12-05T04:06:02.612Z,0
2016-12-05T04:07:11.491Z,0
2016-12-05T04:08:20.342Z,0
2016-12-05T04:09:29.179Z,0
2016-12-05T04:10:38.044Z,0
2016-12-05T04:11:46.896Z,0
2016-12-05T04:12:55.739Z,0
2016-12-05T04:14:04.591Z,0
2016-12-05T04:15:13.464Z,0
2016-12-05T04:16:22.328Z,0
2016-12-05T04:17:31.206Z,0
2016-12-05T04:18:40.050Z,0
2016-12-05T04:19:48.906Z,0
2016-12-05T04:20:57.762Z,0
2016-12-05T04:22:06.600Z,0
2016-12-05T04:23:15.449Z,0
2016-12-05T04:24:24.304Z,0
2016-12-05T04:25:33.134Z,0
2016-12-05T04:26:41.984Z,0
2016-12-05T04:27:50.851Z,0
2016-12-05T04:28:59.687Z,0
2016-12-05T04:30:08.525Z,0
2016-12-05T04:31:17.378Z,0
2016-12-05T04:32:26.234Z,0
2016-12-05T04:33:35.092Z,0
2016-12-05T04:34:43.928Z,0
2016-12-05T04:35:53.087Z,0
2016-12-05T04:37:01.948Z,0
2016-12-05T04:38:10.795Z,0
2016-12-05T04:39:19.639Z,0
2016-12-05T04:40:28.499Z,0
2016-12-05T04:41:37.350Z,0
2016-12-05T04:42:46.180Z,0
2016-12-05T04:43:55.052Z,0
2016-12-05T04:45:03.910Z,0
2016-12-05T04:46:12.735Z,0
2016-12-05T04:47:21.596Z,0
2016-12-05T04:48:30.458Z,0
2016-12-05T04:49:39.301Z,0
2016-12-05T04:50:48.160Z,0
2016-12-05T04:51:57.034Z,0
2016-12-05T04:53:05.861Z,0
2016-12-05T04:54:14.711Z,0
2016-12-05T04:55:23.567Z,0
2016-12-05T04:56:32.406Z,0
2016-12-05T04:57:41.241Z,0
2016-12-05T04:58:50.110Z,0
2016-12-05T04:59:58.969Z,0
2016-12-05T05:01:07.816Z,0
2016-12-05T05:02:16.647Z,0
2016-12-05T05:03:25.488Z,0
2016-12-05T05:04:34.362Z,0
2016-12-05T05:05:43.210Z,0
2016-12-05T05:06:52.054Z,0
2016-12-05T05:08:00.919Z,0
2016-12-05T05:09:09.773Z,0
2016-12-05T05:10:18.614Z,0
2016-12-05T05:11:27.489Z,0
2016-12-05T05:12:36.338Z,0
2016-12-05T05:13:45.167Z,0
2016-12-05T05:14:54.033Z,0
2016-12-05T05:16:02.892Z,0
2016-12-05T05:17:12.094Z,0
2016-12-05T05:18:20.946Z,0
2016-12-05T05:19:29.777Z,0
2016-12-05T05:20:38.681Z,0
2016-12-05T05:21:47.530Z,0
2016-12-05T05:22:56.367Z,0
2016-12-05T05:24:05.224Z,0
2016-12-05T05:25:14.078Z,0
2016-12-05T05:26:22.908Z,0
2016-12-05T05:27:31.763Z,0
2016-12-05T05:28:40.632Z,0
2016-12-05T05:29:49.475Z,0
2016-12-05T05:30:58.324Z,0
2016-12-05T05:32:07.172Z,0
2016-12-05T05:33:16.039Z,0
2016-12-05T05:34:24.912Z,0
2016-12-05T05:35:33.750Z,0
2016-12-05T05:36:42.612Z,0
2016-12-05T05:37:51.477Z,0
2016-12-05T05:39:00.321Z,0
2016-12-05T05:40:09.165Z,0
2016-12-05T05:41:18.076Z,0
2016-12-05T05:42:26.939Z,0
2016-12-05T05:43:35.778Z,0
2016-12-05T05:44:44.641Z,0
2016-12-05T05:45:53.498Z,0
2016-12-05T05:47:02.353Z,0
2016-12-05T05:48:11.206Z,0
2016-12-05T05:49:20.051Z,0
2016-12-05T05:50:28.924Z,0
2016-12-05T05:51:37.763Z,0
2016-12-05T05:52:46.602Z,0
2016-12-05T05:53:55.463Z,0
2016-12-05T05:55:04.316Z,0
2016-12-05T05:56:13.165Z,0
2016-12-05T05:57:22.033Z,0
2016-12-05T05:58:30.888Z,0
2016-12-05T05:59:39.742Z,0
2016-12-05T06:00:48.584Z,0
2016-12-05T06:01:57.472Z,0
2016-12-05T06:03:06.360Z,0
2016-12-05T06:04:15.213Z,0
2016-12-05T06:05:24.035Z,0
2016-12-05T06:06:32.938Z,0
2016-12-05T06:07:41.800Z,0
2016-12-05T06:08:50.636Z,0
2016-12-05T06:09:59.502Z,0
2016-12-05T06:11:08.372Z,0
2016-12-05T06:12:17.527Z,0
2016-12-05T06:13:26.380Z,0
2016-12-05T06:14:35.238Z,0
2016-12-05T06:15:44.100Z,0
2016-12-05T06:16:52.988Z,0
2016-12-05T06:18:01.813Z,0
2016-12-05T06:19:10.679Z,0
2016-12-05T06:20:19.573Z,0
2016-12-05T06:21:28.399Z,0
2016-12-05T06:22:37.286Z,0
2016-12-05T06:23:46.463Z,0
2016-12-05T06:24:55.307Z,0
2016-12-05T06:26:04.158Z,0
2016-12-05T06:27:13.019Z,0
2016-12-05T06:28:21.851Z,0
2016-12-05T06:29:30.713Z,0
2016-12-05T06:30:39.563Z,0
2016-12-05T06:31:48.406Z,0
2016-12-05T06:32:57.274Z,0
2016-12-05T06:34:06.103Z,0
2016-12-05T06:35:14.950Z,0
2016-12-05T06:36:23.834Z,0
2016-12-05T06:37:32.705Z,0
2016-12-05T06:38:41.584Z,0
2016-12-05T06:39:50.452Z,0
2016-12-05T06:40:59.309Z,0
2016-12-05T06:42:08.181Z,0
2016-12-05T06:43:17.057Z,0
2016-12-05T06:44:25.909Z,0
2016-12-05T06:45:34.756Z,0
2016-12-05T06:46:43.619Z,0
2016-12-05T06:47:52.809Z,0
2016-12-05T06:49:01.639Z,0
2016-12-05T06:50:10.493Z,0
2016-12-05T06:51:19.368Z,0
2016-12-05T06:52:28.212Z,0
2016-12-05T06:53:37.093Z,0
2016-12-05T06:54:45.960Z,0
2016-12-05T06:55:54.803Z,0
2016-12-05T06:57:03.649Z,0
2016-12-05T06:58:12.521Z,0
2016-12-05T06:59:21.378Z,0
2016-12-05T07:00:30.235Z,0
2016-12-05T07:01:39.079Z,0
2016-12-05T07:02:47.921Z,0
2016-12-05T07:03:56.797Z,0
2016-12-05T07:05:05.644Z,0
2016-12-05T07:06:14.496Z,0
2016-12-05T07:07:23.360Z,0
2016-12-05T07:08:32.200Z,0
2016-12-05T07:09:41.041Z,0
2016-12-05T07:10:49.935Z,0
2016-12-05T07:11:58.794Z,0
2016-12-05T07:13:07.638Z,0
2016-12-05T07:14:16.493Z,0
2016-12-05T07:15:25.339Z,0
2016-12-05T07:16:34.212Z,0
2016-12-05T07:17:43.061Z,0
2016-12-05T07:18:51.890Z,0
2016-12-05T07:20:00.762Z,0
2016-12-05T07:21:09.620Z,0
2016-12-05T07:22:18.466Z,0
2016-12-05T07:23:27.318Z,0
2016-12-05T07:24:36.188Z,5
2016-12-05T07:25:45.019Z,5
2016-12-05T07:26:54.198Z,5
2016-12-05T07:28:03.043Z,5
2016-12-05T07:29:11.904Z,5
2016-12-05T07:30:20.760Z,5
2016-12-05T07:31:29.596Z,5
2016-12-05T07:32:38.497Z,5
2016-12-05T07:33:47.371Z,5
2016-12-05T07:34:56.216Z,5
2016-12-05T07:36:05.076Z,5
2016-12-05T07:37:13.934Z,5
2016-12-05T07:38:22.772Z,5
2016-12-05T07:39:31.627Z,5
2016-12-05T07:40:40.487Z,5
2016-12-05T07:41:49.331Z,5
2016-12-05T07:42:58.192Z,5
2016-12-05T07:44:07.033Z,5
2016-12-05T07:45:15.881Z,10
2016-12-05T07:46:24.743Z,10
2016-12-05T07:47:33.615Z,10
2016-12-05T07:48:42.463Z,10
2016-12-05T07:49:51.333Z,10
2016-12-05T07:51:00.171Z,10
2016-12-05T07:52:09.011Z,10
2016-12-05T07:53:17.882Z,10
2016-12-05T07:54:26.736Z,10
2016-12-05T07:55:35.588Z,10
2016-12-05T07:56:44.444Z,10
2016-12-05T07:57:53.289Z,10
2016-12-05T07:59:02.156Z,15
2016-12-05T08:00:11.004Z,10
2016-12-05T08:01:19.861Z,10
2016-12-05T08:02:28.729Z,10
2016-12-05T08:03:37.576Z,10
2016-12-05T08:04:46.423Z,15
2016-12-05T08:05:55.296Z,15
2016-12-05T08:07:04.160Z,15
2016-12-05T08:08:12.997Z,15
2016-12-05T08:09:21.859Z,15
2016-12-05T08:10:30.738Z,15
2016-12-05T08:11:39.597Z,15
2016-12-05T08:12:48.445Z,15
2016-12-05T08:13:57.284Z,15
2016-12-05T08:15:06.179Z,15
2016-12-05T08:16:15.033Z,15
2016-12-05T08:17:23.867Z,15
2016-12-05T08:18:32.716Z,15
2016-12-05T08:19:41.581Z,15
2016-12-05T08:20:50.411Z,15
2016-12-05T08:21:59.272Z,15
2016-12-05T08:23:08.132Z,15
2016-12-05T08:24:16.986Z,15
2016-12-05T08:25:25.837Z,15
2016-12-05T08:26:34.687Z,15
2016-12-05T08:27:43.551Z,15
2016-12-05T08:28:52.407Z,20
2016-12-05T08:30:01.248Z,20
2016-12-05T08:31:10.132Z,20
2016-12-05T08:32:18.998Z,15
2016-12-05T08:33:27.833Z,20
2016-12-05T08:34:36.875Z,20
2016-12-05T08:35:45.777Z,20
2016-12-05T08:36:54.621Z,20
2016-12-05T08:38:03.468Z,20
2016-12-05T08:39:12.333Z,20
2016-12-05T08:40:21.193Z,20
2016-12-05T08:41:30.036Z,20
2016-12-05T08:42:38.914Z,25
2016-12-05T08:43:47.774Z,25
2016-12-05T08:44:56.607Z,20
2016-12-05T08:46:05.479Z,25
2016-12-05T08:47:14.341Z,25
2016-12-05T08:48:23.184Z,25
2016-12-05T08:49:32.042Z,25
2016-12-05T08:50:40.917Z,25
2016-12-05T08:51:49.754Z,25
2016-12-05T08:52:58.609Z,25
2016-12-05T08:54:07.466Z,25
2016-12-05T08:55:16.313Z,25
2016-12-05T08:56:25.172Z,25
2016-12-05T08:57:34.006Z,25
2016-12-05T08:58:42.857Z,25
2016-12-05T08:59:51.732Z,25
2016-12-05T09:01:00.569Z,25
2016-12-05T09:02:09.425Z,25
2016-12-05T09:03:18.286Z,25
2016-12-05T09:04:27.122Z,25
2016-12-05T09:05:35.953Z,25
2016-12-05T09:06:45.123Z,25
2016-12-05T09:07:53.960Z,25
2016-12-05T09:09:02.803Z,25
2016-12-05T09:10:11.664Z,25
2016-12-05T09:11:20.511Z,25
2016-12-05T09:12:29.388Z,25
2016-12-05T09:13:38.230Z,25
2016-12-05T09:14:47.072Z,25
2016-12-05T09:15:55.941Z,25
2016-12-05T09:17:04.788Z,25
2016-12-05T09:18:13.612Z,25
2016-12-05T09:19:22.514Z,25
2016-12-05T09:20:31.360Z,25
2016-12-05T09:21:40.207Z,25
2016-12-05T09:22:49.061Z,25
2016-12-05T09:23:57.914Z,25
2016-12-05T09:25:06.766Z,25
2016-12-05T09:26:15.599Z,25
2016-12-05T09:27:24.433Z,25
2016-12-05T09:28:33.300Z,25
2016-12-05T09:29:42.146Z,25
2016-12-05T09:30:50.989Z,25
2016-12-05T09:31:59.847Z,25
2016-12-05T09:33:08.719Z,25
2016-12-05T09:34:17.542Z,25
2016-12-05T09:35:26.396Z,25
2016-12-05T09:36:35.257Z,25
2016-12-05T09:37:44.100Z,25
2016-12-05T09:38:52.950Z,25
2016-12-05T09:40:01.826Z,25
2016-12-05T09:41:10.691Z,25
2016-12-05T09:42:19.538Z,25
2016-12-05T09:43:28.385Z,25
2016-12-05T09:44:37.236Z,25
2016-12-05T09:45:46.109Z,25
2016-12-05T09:46:54.960Z,25
2016-12-05T09:48:03.820Z,25
2016-12-05T09:49:12.686Z,25
2016-12-05T09:50:21.838Z,25
2016-12-05T09:51:30.674Z,25
2016-12-05T09:52:39.573Z,25
2016-12-05T09:53:48.431Z,25
2016-12-05T09:54:57.303Z,25
2016-12-05T09:56:06.147Z,25
2016-12-05T09:57:15.000Z,25
2016-12-05T09:58:23.860Z,25
2016-12-05T09:59:32.701Z,25
2016-12-05T10:00:41.548Z,25
2016-12-05T10:01:50.422Z,25
2016-12-05T10:02:59.274Z,25
2016-12-05T10:04:08.116Z,25
2016-12-05T10:05:17.005Z,25
2016-12-05T10:06:25.848Z,25
2016-12-05T10:07:34.679Z,25
2016-12-05T10:08:43.525Z,25
2016-12-05T10:09:52.380Z,25
2016-12-05T10:11:01.245Z,25
2016-12-05T10:12:10.102Z,25
2016-12-05T10:13:18.935Z,25
2016-12-05T10:14:27.809Z,25
2016-12-05T10:15:36.663Z,25
2016-12-05T10:16:45.529Z,25
2016-12-05T10:17:54.387Z,25
2016-12-05T10:19:03.245Z,25
2016-12-05T10:20:12.080Z,25
2016-12-05T10:21:20.934Z,25
2016-12-05T10:22:29.805Z,25
2016-12-05T10:23:38.644Z,25
2016-12-05T10:24:47.499Z,25
2016-12-05T10:25:56.346Z,25
2016-12-05T10:27:05.208Z,25
2016-12-05T10:28:14.073Z,25
2016-12-05T10:29:22.908Z,25
2016-12-05T10:30:31.782Z,25
2016-12-05T10:31:40.646Z,25
2016-12-05T10:32:49.496Z,25
2016-12-05T10:33:58.347Z,25
2016-12-05T10:35:07.208Z,25
2016-12-05T10:36:16.048Z,25
2016-12-05T10:37:24.880Z,25
2016-12-05T10:38:33.778Z,25
2016-12-05T10:39:42.652Z,25
2016-12-05T10:40:51.500Z,25
2016-12-05T10:42:00.361Z,25
2016-12-05T10:43:09.215Z,25
2016-12-05T10:44:18.035Z,25
2016-12-05T10:45:26.894Z,25
2016-12-05T10:46:35.755Z,25
2016-12-05T10:47:44.606Z,25
2016-12-05T10:48:53.462Z,25
2016-12-05T10:50:02.367Z,25
2016-12-05T10:51:11.569Z,25
2016-12-05T10:52:20.421Z,25
2016-12-05T10:53:29.296Z,25
2016-12-05T10:54:38.184Z,25
2016-12-05T10:55:47.035Z,25
2016-12-05T10:56:55.873Z,25
2016-12-05T10:58:04.725Z,25
2016-12-05T10:59:13.586Z,25
2016-12-05T11:00:22.422Z,25
2016-12-05T11:01:31.270Z,25
2016-12-05T11:02:40.136Z,25
2016-12-05T11:03:48.993Z,25
2016-12-05T11:04:57.829Z,25
2016-12-05T11:06:07.031Z,25
2016-12-05T11:07:15.886Z,25
2016-12-05T11:08:24.729Z,25
2016-12-05T11:09:33.932Z,25
2016-12-05T11:10:42.786Z,25
2016-12-05T11:11:51.655Z,25
2016-12-05T11:13:00.501Z,25
2016-12-05T11:14:09.356Z,25
2016-12-05T11:15:18.226Z,25
2016-12-05T11:16:27.073Z,25
2016-12-05T11:17:35.901Z,25
2016-12-05T11:18:44.762Z,25
2016-12-05T11:19:53.603Z,25
2016-12-05T11:21:02.445Z,25
2016-12-05T11:22:11.310Z,25
2016-12-05T11:23:20.152Z,25
2016-12-05T11:24:29.014Z,25
2016-12-05T11:25:37.859Z,25
2016-12-05T11:26:46.684Z,25
2016-12-05T11:27:55.574Z,25
2016-12-05T11:29:04.453Z,25
2016-12-05T11:30:13.336Z,25
2016-12-05T11:31:22.224Z,25
2016-12-05T11:32:31.084Z,25
2016-12-05T11:33:39.935Z,25
2016-12-05T11:34:48.793Z,25
2016-12-05T11:35:57.661Z,25
2016-12-05T11:37:06.506Z,25
2016-12-05T11:38:15.393Z,25
2016-12-05T11:39:24.543Z,25
2016-12-05T11:40:33.429Z,25
2016-12-05T11:41:42.288Z,25
2016-12-05T11:42:51.125Z,25
2016-12-05T11:43:59.974Z,25
2016-12-05T11:45:08.848Z,25
2016-12-05T11:46:17.704Z,25
2016-12-05T11:47:26.544Z,25
2016-12-05T11:48:35.416Z,25
2016-12-05T11:49:44.262Z,25
2016-12-05T11:50:53.135Z,25
2016-12-05T11:52:01.981Z,25
2016-12-05T11:53:10.834Z,25
2016-12-05T11:54:19.703Z,25
2016-12-05T11:55:28.575Z,25
2016-12-05T11:56:37.422Z,25
2016-12-05T11:57:46.278Z,25
2016-12-05T11:58:55.115Z,25
2016-12-05T12:00:03.957Z,25
2016-12-05T12:01:12.828Z,25
2016-12-05T12:02:21.671Z,25
2016-12-05T12:03:30.508Z,25
2016-12-05T12:04:39.369Z,25
2016-12-05T12:05:48.218Z,25
2016-12-05T12:06:57.078Z,25
2016-12-05T12:08:05.929Z,25
2016-12-05T12:09:14.764Z,25
2016-12-05T12:10:23.632Z,25
2016-12-05T12:11:32.490Z,25
2016-12-05T12:12:41.332Z,25
2016-12-05T12:13:50.195Z,25
2016-12-05T12:14:59.050Z,25
2016-12-05T12:16:07.881Z,25
2016-12-05T12:17:16.743Z,25
2016-12-05T12:18:25.601Z,25
2016-12-05T12:19:34.474Z,25
2016-12-05T12:20:43.327Z,20
2016-12-05T12:21:52.165Z,20
2016-12-05T12:23:01.033Z,20
2016-12-05T12:24:09.879Z,20
2016-12-05T12:25:18.717Z,20
2016-12-05T12:26:27.563Z,20
2016-12-05T12:27:36.426Z,20
2016-12-05T12:28:45.295Z,20
2016-12-05T12:29:54.150Z,20
2016-12-05T12:31:03.037Z,20
2016-12-05T12:32:11.875Z,20
2016-12-05T12:33:20.720Z,20
2016-12-05T12:34:29.575Z,20
2016-12-05T12:35:38.425Z,20
2016-12-05T12:36:47.267Z,20
2016-12-05T12:37:56.136Z,20
2016-12-05T12:39:04.994Z,20
2016-12-05T12:40:13.828Z,20
2016-12-05T12:41:22.688Z,20
2016-12-05T12:42:31.531Z,20
2016-12-05T12:43:40.377Z,20
2016-12-05T12:44:49.238Z,20
2016-12-05T12:45:58.112Z,20
2016-12-05T12:47:06.940Z,20
2016-12-05T12:48:15.801Z,20
2016-12-05T12:49:24.664Z,20
2016-12-05T12:50:33.524Z,20
2016-12-05T12:51:42.382Z,20
2016-12-05T12:52:51.213Z,20
2016-12-05T12:54:00.071Z,20
2016-12-05T12:55:08.939Z,20
2016-12-05T12:56:17.794Z,20
2016-12-05T12:57:26.645Z,20
2016-12-05T12:58:35.517Z,20
2016-12-05T12:59:44.353Z,20
2016-12-05T13:00:53.195Z,20
2016-12-05T13:02:02.060Z,20
2016-12-05T13:03:10.906Z,20
2016-12-05T13:04:19.760Z,20
2016-12-05T13:05:28.609Z,20
2016-12-05T13:06:37.473Z,20
2016-12-05T13:07:46.331Z,35
2016-12-05T13:08:55.167Z,45
2016-12-05T13:10:04.022Z,35
2016-12-05T13:11:12.897Z,20
2016-12-05T13:12:21.734Z,20
2016-12-05T13:13:30.585Z,20
2016-12-05T13:14:39.455Z,20
2016-12-05T13:15:48.305Z,20
2016-12-05T13:16:57.141Z,20
2016-12-05T13:18:06.003Z,25
2016-12-05T13:19:14.852Z,20
2016-12-05T13:20:23.714Z,20
2016-12-05T13:21:32.553Z,20
2016-12-05T13:22:41.391Z,20
2016-12-05T13:23:50.258Z,20
2016-12-05T13:24:59.104Z,20
2016-12-05T13:26:07.947Z,20
2016-12-05T13:27:16.806Z,20
2016-12-05T13:28:25.659Z,20
2016-12-05T13:29:34.493Z,20
2016-12-05T13:30:43.355Z,15
2016-12-05T13:31:52.202Z,15
2016-12-05T13:33:01.050Z,15
2016-12-05T13:34:09.900Z,15
2016-12-05T13:35:18.746Z,15
2016-12-05T13:36:27.629Z,15
2016-12-05T13:37:36.542Z,15
2016-12-05T13:38:45.382Z,15
2016-12-05T13:39:54.561Z,15
2016-12-05T13:41:03.410Z,15
2016-12-05T13:42:12.262Z,15
2016-12-05T13:43:21.104Z,15
2016-12-05T13:44:29.975Z,15
2016-12-05T13:45:38.819Z,15
2016-12-05T13:46:47.688Z,15
2016-12-05T13:47:56.555Z,15
2016-12-05T13:49:05.393Z,15
2016-12-05T13:50:14.263Z,15
2016-12-05T13:51:23.113Z,15
2016-12-05T13:52:31.957Z,15
2016-12-05T13:53:40.822Z,15
2016-12-05T13:54:49.659Z,15
2016-12-05T13:55:58.509Z,15
2016-12-05T13:57:07.369Z,15
2016-12-05T13:58:16.215Z,15
2016-12-05T13:59:25.059Z,15
2016-12-05T14:00:33.924Z,10
2016-12-05T14:01:43.079Z,10
2016-12-05T14:02:51.908Z,10
2016-12-05T14:04:01.126Z,10
2016-12-05T14:05:09.971Z,10
2016-12-05T14:06:18.837Z,10
2016-12-05T14:07:27.675Z,10
2016-12-05T14:08:36.524Z,10
2016-12-05T14:09:45.383Z,10
2016-12-05T14:10:54.235Z,10
2016-12-05T14:12:03.059Z,10
2016-12-05T14:13:11.932Z,10
2016-12-05T14:14:20.786Z,10
2016-12-05T14:15:29.628Z,10
2016-12-05T14:16:38.496Z,10
2016-12-05T14:17:47.356Z,10
2016-12-05T14:18:56.214Z,10
2016-12-05T14:20:05.086Z,10
2016-12-05T14:21:13.916Z,10
2016-12-05T14:22:22.792Z,5
2016-12-05T14:23:31.654Z,5
2016-12-05T14:24:40.497Z,5
2016-12-05T14:25:49.353Z,5
2016-12-05T14:26:58.246Z,5
2016-12-05T14:28:07.081Z,5
2016-12-05T14:29:15.965Z,5
2016-12-05T14:30:24.868Z,5
2016-12-05T14:31:33.981Z,5
2016-12-05T14:32:42.827Z,5
2016-12-05T14:33:51.696Z,5
2016-12-05T14:35:00.543Z,5
2016-12-05T14:36:09.383Z,5
2016-12-05T14:37:18.257Z,5
2016-12-05T14:38:27.108Z,5
2016-12-05T14:39:35.955Z,5
2016-12-05T14:40:44.817Z,5
2016-12-05T14:41:53.676Z,0
2016-12-05T14:43:02.519Z,0
2016-12-05T14:44:11.435Z,0
2016-12-05T14:45:20.286Z,0
2016-12-05T14:46:29.156Z,0
2016-12-05T14:47:38.028Z,0
2016-12-05T14:48:46.865Z,0
2016-12-05T14:49:55.771Z,0
2016-12-05T14:51:04.953Z,0
2016-12-05T14:52:13.786Z,0
2016-12-05T14:53:22.639Z,0
2016-12-05T14:54:31.501Z,0
2016-12-05T14:55:40.346Z,0
2016-12-05T14:56:49.193Z,0
2016-12-05T14:57:58.046Z,0
2016-12-05T14:59:06.882Z,0
2016-12-05T15:00:15.737Z,0
2016-12-05T15:01:24.602Z,0
2016-12-05T15:02:33.457Z,0
2016-12-05T15:03:42.322Z,0
2016-12-05T15:04:51.161Z,0
2016-12-05T15:06:00.016Z,0
2016-12-05T15:07:08.869Z,0
2016-12-05T15:08:17.723Z,0
2016-12-05T15:09:26.572Z,0
2016-12-05T15:10:35.428Z,0
2016-12-05T15:11:44.272Z,0
2016-12-05T15:12:53.112Z,0
2016-12-05T15:14:02.307Z,0
2016-12-05T15:15:11.165Z,0
2016-12-05T15:16:20.011Z,0
2016-12-05T15:17:28.867Z,0
2016-12-05T15:18:37.711Z,0
2016-12-05T15:19:46.582Z,0
2016-12-05T15:20:55.420Z,0
2016-12-05T15:22:04.269Z,0
2016-12-05T15:23:13.126Z,0
2016-12-05T15:24:21.980Z,0
2016-12-05T15:25:30.818Z,0
2016-12-05T15:26:39.686Z,0
2016-12-05T15:27:48.540Z,0
2016-12-05T15:28:57.384Z,0
2016-12-05T15:30:06.251Z,0
2016-12-05T15:31:15.109Z,0
2016-12-05T15:32:23.960Z,0
2016-12-05T15:33:32.800Z,0
2016-12-05T15:34:41.637Z,0
2016-12-05T15:35:50.503Z,0
2016-12-05T15:36:59.379Z,0
2016-12-05T15:38:08.216Z,0
2016-12-05T15:39:17.078Z,0
2016-12-05T15:40:26.255Z,0
2016-12-05T15:41:35.103Z,0
2016-12-05T15:42:43.958Z,0
2016-12-05T15:43:52.824Z,0
2016-12-05T15:45:01.667Z,0
2016-12-05T15:46:10.514Z,0
2016-12-05T15:47:19.381Z,0
2016-12-05T15:48:28.240Z,0
2016-12-05T15:49:37.103Z,0
2016-12-05T15:50:45.957Z,0
2016-12-05T15:51:54.814Z,0
2016-12-05T15:53:03.679Z,0
2016-12-05T15:54:12.527Z,0
2016-12-05T15:55:21.393Z,0
2016-12-05T15:56:30.253Z,0
2016-12-05T15:57:39.105Z,0
2016-12-05T15:58:47.941Z,0
2016-12-05T15:59:56.811Z,0
2016-12-05T16:01:05.687Z,0
2016-12-05T16:02:14.536Z,0
2016-12-05T16:03:23.367Z,0
2016-12-05T16:04:32.212Z,0
2016-12-05T16:05:41.115Z,0
2016-12-05T16:06:49.981Z,0
2016-12-05T16:07:58.831Z,0
2016-12-05T16:09:07.700Z,0
2016-12-05T16:10:16.555Z,0
2016-12-05T16:11:25.392Z,0
2016-12-05T16:12:34.258Z,0
2016-12-05T16:13:43.117Z,0
2016-12-05T16:14:51.944Z,0
2016-12-05T16:16:00.824Z,0
2016-12-05T16:17:09.668Z,0
2016-12-05T16:18:18.533Z,0
2016-12-05T16:19:27.387Z,0
2016-12-05T16:20:36.223Z,0
2016-12-05T16:21:45.106Z,0
2016-12-05T16:22:53.982Z,0
2016-12-05T16:24:02.828Z,0
2016-12-05T16:25:11.688Z,0
2016-12-05T16:26:20.542Z,0
2016-12-05T16:27:29.387Z,0
2016-12-05T16:28:38.250Z,0
2016-12-05T16:29:47.132Z,0
2016-12-05T16:30:55.970Z,0
2016-12-05T16:32:04.816Z,0
2016-12-05T16:33:13.689Z,0
2016-12-05T16:34:22.524Z,0
2016-12-05T16:35:31.368Z,0
2016-12-05T16:36:40.235Z,0
2016-12-05T16:37:49.092Z,0
2016-12-05T16:38:57.957Z,0
2016-12-05T16:40:06.821Z,0
2016-12-05T16:41:15.677Z,0
2016-12-05T16:42:24.521Z,0
2016-12-05T16:43:33.405Z,0